createdAt,value
2019-03-10T00:00:35.017Z,7.75
2019-03-10T00:01:40.741Z,6.60
2019-03-10T00:02:45.931Z,6.72
2019-03-10T00:03:51.204Z,6.42
2019-03-10T00:04:56.339Z,7.00
2019-03-10T00:06:01.562Z,8.13
2019-03-10T00:07:06.656Z,10.50
2019-03-10T00:08:11.967Z,6.67
2019-03-10T00:09:17.624Z,6.95
2019-03-10T00:10:22.702Z,8.28
2019-03-10T00:11:27.917Z,8.30
2019-03-10T00:12:33.141Z,6.80
2019-03-10T00:13:38.311Z,7.67
2019-03-10T00:14:43.452Z,7.20
2019-03-10T00:15:48.854Z,8.15
2019-03-10T00:16:53.931Z,7.25
2019-03-10T00:17:59.054Z,6.42
2019-03-10T00:19:04.089Z,7.17
2019-03-10T00:20:09.259Z,8.33
2019-03-10T00:21:15.141Z,6.80
2019-03-10T00:22:20.413Z,7.37
2019-03-10T00:23:25.535Z,9.55
2019-03-10T00:24:30.748Z,6.97
2019-03-10T00:25:35.912Z,7.40
2019-03-10T00:26:41.051Z,6.62
2019-03-10T00:27:46.464Z,7.97
2019-03-10T00:28:51.921Z,7.03
2019-03-10T00:29:57.011Z,6.08
2019-03-10T00:31:02.166Z,7.60
2019-03-10T00:32:07.608Z,8.18
2019-03-10T00:33:12.752Z,8.25
2019-03-10T00:34:18.158Z,7.47
2019-03-10T00:35:23.411Z,6.45
2019-03-10T00:36:28.640Z,8.50
2019-03-10T00:37:33.856Z,7.15
2019-03-10T00:38:51.912Z,9.18
2019-03-10T00:40:38.088Z,6.80
2019-03-10T00:42:10.907Z,7.37
2019-03-10T00:44:02.823Z,8.05
2019-03-10T00:45:43.913Z,7.05
2019-03-10T00:47:25.834Z,8.40
2019-03-10T00:49:13.453Z,7.15
2019-03-10T00:51:13.818Z,8.05
2019-03-10T00:52:32.305Z,7.00
2019-03-10T00:53:37.423Z,6.47
2019-03-10T00:54:42.497Z,8.33
2019-03-10T00:55:47.652Z,7.12
2019-03-10T00:56:53.052Z,8.33
2019-03-10T00:57:58.551Z,8.65
2019-03-10T00:59:03.681Z,7.85
2019-03-10T01:00:15.149Z,7.53
2019-03-10T01:01:20.311Z,6.10
2019-03-10T01:02:25.444Z,6.67
2019-03-10T01:03:30.648Z,7.45
2019-03-10T01:04:35.693Z,7.03
2019-03-10T01:05:40.859Z,7.17
2019-03-10T01:06:46.058Z,6.40
2019-03-10T01:07:51.192Z,7.60
2019-03-10T01:08:56.345Z,7.47
2019-03-10T01:10:01.517Z,7.25
2019-03-10T01:11:06.660Z,7.60
2019-03-10T01:12:11.886Z,7.50
2019-03-10T01:13:17.366Z,6.95
2019-03-10T01:14:22.509Z,7.37
2019-03-10T01:15:27.612Z,6.28
2019-03-10T01:16:33.436Z,6.92
2019-03-10T01:17:39.174Z,7.30
2019-03-10T01:18:48.840Z,6.47
2019-03-10T01:19:54.329Z,6.55
2019-03-10T01:21:02.380Z,8.05
2019-03-10T01:22:07.521Z,8.80
2019-03-10T01:23:12.887Z,6.72
2019-03-10T01:24:18.084Z,6.40
2019-03-10T01:25:23.182Z,6.40
2019-03-10T01:26:28.525Z,8.25
2019-03-10T01:27:33.703Z,6.20
2019-03-10T01:28:39.012Z,7.08
2019-03-10T01:29:44.126Z,7.85
2019-03-10T01:31:09.918Z,6.45
2019-03-10T01:32:30.015Z,6.50
2019-03-10T01:34:06.733Z,7.62
2019-03-10T01:35:17.565Z,6.30
2019-03-10T01:36:21.115Z,7.22
2019-03-10T01:37:26.137Z,6.60
2019-03-10T01:38:31.151Z,6.85
2019-03-10T01:39:36.361Z,7.40
2019-03-10T01:40:41.491Z,7.80
2019-03-10T01:41:46.793Z,7.35
2019-03-10T01:42:51.856Z,6.45
2019-03-10T01:43:56.941Z,8.53
2019-03-10T01:45:01.985Z,8.45
2019-03-10T01:46:07.206Z,7.28
2019-03-10T01:47:12.271Z,6.97
2019-03-10T01:48:17.812Z,6.30
2019-03-10T01:49:22.857Z,6.55
2019-03-10T01:50:27.974Z,5.22
2019-03-10T01:51:33.048Z,5.75
2019-03-10T01:52:38.183Z,6.10
2019-03-10T01:53:43.688Z,6.87
2019-03-10T01:54:48.885Z,7.10
2019-03-10T01:55:54.033Z,6.05
2019-03-10T01:56:59.063Z,6.35
2019-03-10T01:58:04.224Z,6.53
2019-03-10T01:59:09.285Z,6.83
2019-03-10T02:00:16.227Z,6.45
2019-03-10T02:01:21.405Z,6.33
2019-03-10T02:02:26.489Z,6.20
2019-03-10T02:03:31.576Z,6.25
2019-03-10T02:04:36.571Z,5.87
2019-03-10T02:05:41.608Z,5.83
2019-03-10T02:06:46.692Z,6.05
2019-03-10T02:07:51.799Z,6.30
2019-03-10T02:08:56.850Z,5.55
2019-03-10T02:10:02.217Z,6.62
2019-03-10T02:11:07.358Z,5.83
2019-03-10T02:12:12.376Z,6.60
2019-03-10T02:13:17.366Z,5.92
2019-03-10T02:14:22.692Z,5.05
2019-03-10T02:15:27.805Z,7.28
2019-03-10T02:16:32.837Z,6.47
2019-03-10T02:17:37.866Z,6.42
2019-03-10T02:18:42.992Z,6.55
2019-03-10T02:19:48.454Z,8.30
2019-03-10T02:20:53.605Z,6.35
2019-03-10T02:21:58.767Z,7.28
2019-03-10T02:23:03.899Z,5.83
2019-03-10T02:24:08.953Z,7.47
2019-03-10T02:25:14.379Z,5.60
2019-03-10T02:26:19.468Z,10.00
2019-03-10T02:27:24.628Z,7.08
2019-03-10T02:28:29.704Z,6.03
2019-03-10T02:29:34.803Z,6.70
2019-03-10T02:30:39.985Z,7.03
2019-03-10T02:31:45.299Z,6.17
2019-03-10T02:32:50.445Z,6.97
2019-03-10T02:33:55.852Z,5.85
2019-03-10T02:35:01.099Z,7.35
2019-03-10T02:36:06.475Z,6.70
2019-03-10T02:37:11.552Z,6.30
2019-03-10T02:38:16.604Z,5.92
2019-03-10T02:39:21.731Z,6.65
2019-03-10T02:40:26.859Z,7.00
2019-03-10T02:41:31.913Z,6.35
2019-03-10T02:42:36.942Z,6.62
2019-03-10T02:43:42.044Z,5.90
2019-03-10T02:44:47.026Z,5.58
2019-03-10T02:45:52.515Z,5.08
2019-03-10T02:46:57.503Z,6.50
2019-03-10T02:48:02.672Z,6.40
2019-03-10T02:49:07.802Z,6.33
2019-03-10T02:50:12.947Z,7.17
2019-03-10T02:51:18.065Z,7.60
2019-03-10T02:52:23.772Z,6.10
2019-03-10T02:53:28.827Z,7.72
2019-03-10T02:54:33.969Z,7.05
2019-03-10T02:55:39.294Z,6.70
2019-03-10T02:56:44.384Z,5.92
2019-03-10T02:57:49.506Z,7.25
2019-03-10T02:58:54.877Z,6.42
2019-03-10T02:59:59.980Z,7.03
2019-03-10T03:01:05.129Z,5.95
2019-03-10T03:02:10.269Z,7.35
2019-03-10T03:03:15.497Z,5.35
2019-03-10T03:04:20.640Z,6.83
2019-03-10T03:05:25.696Z,7.20
2019-03-10T03:06:30.911Z,6.37
2019-03-10T03:07:36.039Z,5.80
2019-03-10T03:08:41.160Z,8.05
2019-03-10T03:09:46.239Z,6.62
2019-03-10T03:10:51.305Z,6.17
2019-03-10T03:11:56.488Z,6.17
2019-03-10T03:13:01.562Z,6.80
2019-03-10T03:14:06.706Z,6.50
2019-03-10T03:15:12.257Z,6.70
2019-03-10T03:16:17.417Z,5.17
2019-03-10T03:17:22.373Z,6.47
2019-03-10T03:18:27.542Z,5.70
2019-03-10T03:19:32.585Z,7.03
2019-03-10T03:20:37.824Z,7.60
2019-03-10T03:21:43.963Z,6.08
2019-03-10T03:22:50.017Z,6.40
2019-03-10T03:23:55.059Z,7.20
2019-03-10T03:25:00.451Z,7.83
2019-03-10T03:26:05.653Z,9.58
2019-03-10T03:27:10.794Z,8.20
2019-03-10T03:28:15.858Z,6.37
2019-03-10T03:29:20.829Z,7.45
2019-03-10T03:30:26.139Z,6.78
2019-03-10T03:31:31.197Z,5.60
2019-03-10T03:32:36.778Z,6.00
2019-03-10T03:33:41.844Z,6.22
2019-03-10T03:34:46.794Z,7.72
2019-03-10T03:36:03.255Z,7.80
2019-03-10T03:37:10.290Z,6.72
2019-03-10T03:38:15.699Z,8.50
2019-03-10T03:39:41.817Z,6.03
2019-03-10T03:40:49.882Z,5.60
2019-03-10T03:41:55.001Z,6.20
2019-03-10T03:43:00.021Z,6.65
2019-03-10T03:44:05.165Z,6.90
2019-03-10T03:45:10.383Z,6.67
2019-03-10T03:46:15.532Z,6.15
2019-03-10T03:47:20.622Z,6.10
2019-03-10T03:48:25.700Z,7.33
2019-03-10T03:49:30.839Z,7.33
2019-03-10T03:50:35.801Z,6.87
2019-03-10T03:51:40.933Z,6.08
2019-03-10T03:52:46.017Z,8.45
2019-03-10T03:53:51.324Z,7.25
2019-03-10T03:54:56.328Z,5.95
2019-03-10T03:56:01.576Z,6.30
2019-03-10T03:57:06.609Z,7.05
2019-03-10T03:58:11.990Z,6.28
2019-03-10T03:59:17.106Z,5.42
2019-03-10T04:00:22.212Z,6.08
2019-03-10T04:01:33.307Z,6.45
2019-03-10T04:02:39.557Z,5.70
2019-03-10T04:03:45.180Z,5.75
2019-03-10T04:04:50.420Z,6.95
2019-03-10T04:05:55.497Z,7.37
2019-03-10T04:07:00.539Z,4.92
2019-03-10T04:08:05.930Z,5.37
2019-03-10T04:09:11.060Z,5.47
2019-03-10T04:10:16.186Z,7.50
2019-03-10T04:11:21.292Z,5.17
2019-03-10T04:12:26.421Z,5.97
2019-03-10T04:13:31.520Z,6.85
2019-03-10T04:14:36.529Z,6.20
2019-03-10T04:15:41.568Z,5.40
2019-03-10T04:16:46.622Z,5.08
2019-03-10T04:17:51.723Z,5.28
2019-03-10T04:18:57.037Z,5.87
2019-03-10T04:20:02.026Z,4.80
2019-03-10T04:21:07.057Z,6.30
2019-03-10T04:22:12.021Z,4.85
2019-03-10T04:23:17.286Z,4.90
2019-03-10T04:24:22.333Z,5.80
2019-03-10T04:25:27.423Z,4.35
2019-03-10T04:26:32.884Z,4.80
2019-03-10T04:27:37.850Z,4.42
2019-03-10T04:28:42.948Z,5.30
2019-03-10T04:29:48.279Z,4.78
2019-03-10T04:30:53.303Z,4.80
2019-03-10T04:31:58.426Z,5.03
2019-03-10T04:33:03.542Z,4.90
2019-03-10T04:34:08.581Z,4.25
2019-03-10T04:35:13.653Z,4.75
2019-03-10T04:36:18.871Z,4.33
2019-03-10T04:37:23.826Z,4.80
2019-03-10T04:38:28.952Z,4.10
2019-03-10T04:39:34.035Z,4.20
2019-03-10T04:40:39.083Z,4.85
2019-03-10T04:41:44.224Z,3.70
2019-03-10T04:42:49.275Z,5.05
2019-03-10T04:43:54.384Z,4.67
2019-03-10T04:44:59.489Z,3.90
2019-03-10T04:46:04.642Z,6.28
2019-03-10T04:47:09.692Z,4.45
2019-03-10T04:48:14.813Z,4.00
2019-03-10T04:49:20.124Z,4.40
2019-03-10T04:50:25.477Z,4.25
2019-03-10T04:51:30.587Z,3.95
2019-03-10T04:52:35.760Z,3.27
2019-03-10T04:53:41.427Z,4.47
2019-03-10T04:55:17.333Z,4.28
2019-03-10T04:56:44.152Z,4.97
2019-03-10T04:58:00.819Z,4.30
2019-03-10T04:59:05.831Z,3.52
2019-03-10T05:00:11.066Z,3.95
2019-03-10T05:01:16.173Z,3.42
2019-03-10T05:02:21.533Z,3.55
2019-03-10T05:03:26.756Z,3.95
2019-03-10T05:04:32.207Z,3.22
2019-03-10T05:05:37.350Z,3.80
2019-03-10T05:06:42.669Z,3.80
2019-03-10T05:07:47.737Z,3.30
2019-03-10T05:08:53.051Z,4.12
2019-03-10T05:09:58.418Z,3.90
2019-03-10T05:11:03.487Z,4.78
2019-03-10T05:12:08.582Z,4.00
2019-03-10T05:13:13.693Z,6.75
2019-03-10T05:14:18.931Z,4.42
2019-03-10T05:15:24.266Z,3.30
2019-03-10T05:16:29.598Z,4.20
2019-03-10T05:17:34.634Z,4.45
2019-03-10T05:18:39.658Z,4.12
2019-03-10T05:19:44.791Z,3.77
2019-03-10T05:20:50.562Z,3.67
2019-03-10T05:21:55.771Z,5.33
2019-03-10T05:23:31.547Z,4.35
2019-03-10T05:24:36.757Z,3.60
2019-03-10T05:25:42.093Z,3.98
2019-03-10T05:26:47.471Z,4.15
2019-03-10T05:27:52.639Z,3.87
2019-03-10T05:28:57.931Z,4.00
2019-03-10T05:30:03.061Z,3.87
2019-03-10T05:31:08.204Z,3.72
2019-03-10T05:32:13.743Z,4.30
2019-03-10T05:33:18.865Z,3.40
2019-03-10T05:34:23.981Z,3.85
2019-03-10T05:35:28.944Z,4.10
2019-03-10T05:36:34.251Z,3.37
2019-03-10T05:37:39.598Z,4.45
2019-03-10T05:38:45.368Z,4.25
2019-03-10T05:39:50.977Z,3.33
2019-03-10T05:40:56.350Z,3.40
2019-03-10T05:42:01.356Z,3.67
2019-03-10T05:43:06.423Z,3.58
2019-03-10T05:44:11.481Z,3.87
2019-03-10T05:45:16.523Z,4.45
2019-03-10T05:46:21.660Z,4.40
2019-03-10T05:47:26.675Z,4.62
2019-03-10T05:48:31.742Z,4.10
2019-03-10T05:49:36.938Z,4.65
2019-03-10T05:50:42.066Z,5.17
2019-03-10T05:51:47.094Z,4.50
2019-03-10T05:53:00.685Z,4.22
2019-03-10T05:54:05.404Z,4.45
2019-03-10T05:55:10.918Z,4.85
2019-03-10T05:56:16.224Z,3.80
2019-03-10T05:57:21.299Z,5.22
2019-03-10T05:58:26.574Z,4.47
2019-03-10T05:59:31.618Z,4.60
2019-03-10T06:00:42.694Z,4.45
2019-03-10T06:01:43.888Z,4.00
2019-03-10T06:02:49.038Z,2.87
2019-03-10T06:03:54.323Z,3.33
2019-03-10T06:04:59.634Z,4.05
2019-03-10T06:06:04.858Z,4.15
2019-03-10T06:07:09.969Z,3.70
2019-03-10T06:08:15.317Z,3.00
2019-03-10T06:09:20.476Z,3.70
2019-03-10T06:10:25.551Z,3.20
2019-03-10T06:11:30.629Z,2.50
2019-03-10T06:12:35.668Z,3.90
2019-03-10T06:13:40.657Z,3.27
2019-03-10T06:14:45.793Z,4.00
2019-03-10T06:15:50.972Z,3.80
2019-03-10T06:16:55.973Z,3.40
2019-03-10T06:18:00.992Z,3.27
2019-03-10T06:19:06.043Z,3.00
2019-03-10T06:20:11.232Z,4.10
2019-03-10T06:21:16.556Z,3.30
2019-03-10T06:22:21.909Z,5.42
2019-03-10T06:23:27.461Z,3.50
2019-03-10T06:24:32.443Z,3.02
2019-03-10T06:25:37.519Z,2.80
2019-03-10T06:26:42.686Z,4.50
2019-03-10T06:27:47.994Z,2.90
2019-03-10T06:28:53.176Z,2.70
2019-03-10T06:29:58.191Z,4.30
2019-03-10T06:31:03.605Z,2.62
2019-03-10T06:32:08.550Z,2.20
2019-03-10T06:33:13.665Z,2.70
2019-03-10T06:34:18.679Z,3.05
2019-03-10T06:35:24.005Z,2.67
2019-03-10T06:36:29.025Z,3.20
2019-03-10T06:37:34.096Z,3.80
2019-03-10T06:38:39.376Z,3.83
2019-03-10T06:39:44.458Z,3.22
2019-03-10T06:40:49.561Z,3.17
2019-03-10T06:41:54.506Z,3.90
2019-03-10T06:42:59.627Z,3.33
2019-03-10T06:44:04.795Z,3.70
2019-03-10T06:45:10.214Z,3.45
2019-03-10T06:46:15.262Z,3.60
2019-03-10T06:47:20.530Z,3.58
2019-03-10T06:48:25.688Z,4.12
2019-03-10T06:49:30.636Z,4.08
2019-03-10T06:50:35.721Z,4.00
2019-03-10T06:51:41.248Z,3.98
2019-03-10T06:52:46.281Z,3.60
2019-03-10T06:53:51.348Z,3.62
2019-03-10T06:54:56.405Z,3.95
2019-03-10T06:56:01.471Z,3.75
2019-03-10T06:57:06.523Z,3.98
2019-03-10T06:58:11.813Z,3.90
2019-03-10T06:59:17.068Z,4.00
2019-03-10T07:00:22.140Z,4.03
2019-03-10T07:01:27.502Z,3.60
2019-03-10T07:02:32.618Z,3.05
2019-03-10T07:03:37.949Z,3.17
2019-03-10T07:04:43.017Z,3.00
2019-03-10T07:05:48.303Z,2.98
2019-03-10T07:06:53.353Z,3.35
2019-03-10T07:07:58.408Z,3.45
2019-03-10T07:09:05.388Z,3.42
2019-03-10T07:10:12.062Z,3.15
2019-03-10T07:11:17.170Z,3.15
2019-03-10T07:12:22.275Z,3.55
2019-03-10T07:13:27.639Z,2.55
2019-03-10T07:14:32.989Z,3.17
2019-03-10T07:15:38.113Z,3.05
2019-03-10T07:16:43.406Z,2.80
2019-03-10T07:17:48.506Z,3.00
2019-03-10T07:18:53.603Z,2.60
2019-03-10T07:19:58.867Z,2.83
2019-03-10T07:21:03.838Z,2.42
2019-03-10T07:22:09.009Z,2.62
2019-03-10T07:23:15.320Z,2.50
2019-03-10T07:24:20.282Z,2.95
2019-03-10T07:25:25.422Z,2.37
2019-03-10T07:26:30.426Z,2.37
2019-03-10T07:28:03.722Z,2.83
2019-03-10T07:29:30.042Z,2.92
2019-03-10T07:30:42.655Z,2.70
2019-03-10T07:31:52.465Z,2.10
2019-03-10T07:33:13.063Z,2.58
2019-03-10T07:34:36.067Z,4.45
2019-03-10T07:35:53.289Z,2.50
2019-03-10T07:37:15.974Z,2.22
2019-03-10T07:38:36.678Z,2.35
2019-03-10T07:40:03.879Z,2.20
2019-03-10T07:41:34.559Z,2.87
2019-03-10T07:43:01.884Z,2.83
2019-03-10T07:44:27.035Z,4.35
2019-03-10T07:46:06.042Z,2.90
2019-03-10T07:47:23.022Z,2.80
2019-03-10T07:48:51.130Z,2.55
2019-03-10T07:50:17.959Z,2.98
2019-03-10T07:51:30.130Z,2.87
2019-03-10T07:52:43.247Z,2.75
2019-03-10T07:54:16.851Z,3.10
2019-03-10T07:55:40.956Z,3.17
2019-03-10T07:57:01.268Z,2.15
2019-03-10T07:58:20.375Z,2.92
2019-03-10T07:59:53.473Z,2.60
2019-03-10T08:01:15.937Z,2.47
2019-03-10T08:02:40.242Z,2.22
2019-03-10T08:04:02.904Z,2.50
2019-03-10T08:05:25.801Z,2.50
2019-03-10T08:06:53.144Z,1.90
2019-03-10T08:08:04.751Z,2.12
2019-03-10T08:09:18.607Z,3.12
2019-03-10T08:10:54.673Z,3.92
2019-03-10T08:12:24.842Z,2.27
2019-03-10T08:13:51.699Z,2.45
2019-03-10T08:15:22.051Z,3.60
2019-03-10T08:16:52.339Z,2.20
2019-03-10T08:18:28.617Z,2.10
2019-03-10T08:19:51.419Z,2.60
2019-03-10T08:21:15.619Z,2.37
2019-03-10T08:22:51.701Z,2.45
2019-03-10T08:24:11.688Z,2.50
2019-03-10T08:25:26.423Z,2.37
2019-03-10T08:26:56.502Z,3.35
2019-03-10T08:28:08.924Z,2.65
2019-03-10T08:29:42.845Z,2.80
2019-03-10T08:31:07.003Z,2.60
2019-03-10T08:32:22.387Z,2.70
2019-03-10T08:34:01.617Z,3.08
2019-03-10T08:35:15.311Z,4.20
2019-03-10T08:36:42.403Z,3.08
2019-03-10T08:37:56.191Z,3.80
2019-03-10T08:39:19.844Z,3.65
2019-03-10T08:40:44.165Z,3.90
2019-03-10T08:42:20.134Z,3.85
2019-03-10T08:43:33.660Z,4.03
2019-03-10T08:45:00.800Z,5.75
2019-03-10T08:46:11.723Z,4.60
2019-03-10T08:47:23.922Z,4.33
2019-03-10T08:48:57.714Z,4.67
2019-03-10T08:50:30.066Z,4.47
2019-03-10T08:51:42.339Z,4.65
2019-03-10T08:52:55.743Z,4.35
2019-03-10T08:54:22.643Z,4.85
2019-03-10T08:55:49.922Z,4.40
2019-03-10T08:57:00.817Z,5.25
2019-03-10T08:58:15.812Z,4.30
2019-03-10T08:59:38.933Z,5.60
2019-03-10T09:01:01.755Z,5.50
2019-03-10T09:02:24.582Z,5.25
2019-03-10T09:03:47.801Z,5.17
2019-03-10T09:05:00.349Z,5.22
2019-03-10T09:06:12.028Z,6.40
2019-03-10T09:07:36.106Z,5.35
2019-03-10T09:09:03.612Z,5.33
2019-03-10T09:10:16.298Z,5.45
2019-03-10T09:11:40.339Z,5.03
2019-03-10T09:12:51.742Z,5.60
2019-03-10T09:14:05.843Z,5.03
2019-03-10T09:15:44.922Z,5.33
2019-03-10T09:17:07.552Z,4.80
2019-03-10T09:18:30.176Z,4.15
2019-03-10T09:20:00.198Z,4.50
2019-03-10T09:21:18.994Z,5.08
2019-03-10T09:22:55.324Z,4.97
2019-03-10T09:24:18.693Z,4.50
2019-03-10T09:25:32.761Z,4.65
2019-03-10T09:26:55.658Z,4.25
2019-03-10T09:28:18.573Z,3.75
2019-03-10T09:29:37.039Z,6.45
2019-03-10T09:31:03.896Z,5.22
2019-03-10T09:32:37.079Z,3.70
2019-03-10T09:33:50.279Z,3.00
2019-03-10T09:35:03.119Z,3.37
2019-03-10T09:36:20.380Z,3.35
2019-03-10T09:37:34.558Z,3.10
2019-03-10T09:38:58.564Z,3.50
2019-03-10T09:40:23.635Z,4.50
2019-03-10T09:41:38.595Z,2.77
2019-03-10T09:42:54.978Z,2.55
2019-03-10T09:44:12.789Z,2.85
2019-03-10T09:45:36.705Z,2.20
2019-03-10T09:46:47.585Z,2.00
2019-03-10T09:48:14.130Z,2.15
2019-03-10T09:49:29.877Z,1.87
2019-03-10T09:50:52.345Z,2.85
2019-03-10T09:52:14.270Z,1.95
2019-03-10T09:53:38.293Z,2.10
2019-03-10T09:55:01.058Z,1.90
2019-03-10T09:56:29.161Z,1.55
2019-03-10T09:57:51.530Z,1.95
2019-03-10T09:59:10.989Z,1.47
2019-03-10T10:00:23.532Z,1.60
2019-03-10T10:01:44.311Z,1.70
2019-03-10T10:03:07.015Z,1.72
2019-03-10T10:04:40.202Z,1.20
2019-03-10T10:05:57.698Z,2.10
2019-03-10T10:07:24.543Z,1.42
2019-03-10T10:08:51.222Z,1.90
2019-03-10T10:10:27.337Z,1.82
2019-03-10T10:11:44.488Z,1.60
2019-03-10T10:13:02.551Z,2.12
2019-03-10T10:14:32.896Z,1.90
2019-03-10T10:15:44.519Z,2.15
2019-03-10T10:17:03.574Z,2.20
2019-03-10T10:18:24.124Z,2.20
2019-03-10T10:19:36.297Z,2.02
2019-03-10T10:21:01.331Z,2.10
2019-03-10T10:22:19.402Z,2.35
2019-03-10T10:23:30.135Z,1.85
2019-03-10T10:24:50.284Z,2.80
2019-03-10T10:26:20.234Z,3.27
2019-03-10T10:27:53.765Z,2.35
2019-03-10T10:29:13.759Z,2.50
2019-03-10T10:30:44.172Z,2.70
2019-03-10T10:31:55.178Z,2.50
2019-03-10T10:33:16.588Z,2.70
2019-03-10T10:34:59.292Z,2.60
2019-03-10T10:36:17.854Z,2.85
2019-03-10T10:37:39.393Z,2.50
2019-03-10T10:39:02.176Z,2.80
2019-03-10T10:40:32.176Z,2.50
2019-03-10T10:41:59.606Z,3.62
2019-03-10T10:43:17.969Z,2.60
2019-03-10T10:44:38.402Z,2.85
2019-03-10T10:46:05.242Z,2.35
2019-03-10T10:47:28.350Z,2.05
2019-03-10T10:48:39.974Z,2.00
2019-03-10T10:49:56.112Z,2.52
2019-03-10T10:51:23.331Z,2.77
2019-03-10T10:52:40.472Z,3.62
2019-03-10T10:53:52.632Z,4.28
2019-03-10T10:55:21.256Z,2.30
2019-03-10T10:56:42.480Z,2.58
2019-03-10T10:58:06.454Z,2.75
2019-03-10T10:59:20.977Z,2.15
2019-03-10T11:00:54.249Z,3.92
2019-03-10T11:02:23.665Z,3.05
2019-03-10T11:03:44.516Z,2.95
2019-03-10T11:05:12.455Z,3.70
2019-03-10T11:06:32.993Z,3.10
2019-03-10T11:07:45.172Z,3.22
2019-03-10T11:09:02.697Z,3.17
2019-03-10T11:10:26.361Z,2.65
2019-03-10T11:11:50.543Z,3.35
2019-03-10T11:13:26.764Z,2.40
2019-03-10T11:14:45.334Z,2.47
2019-03-10T11:16:11.594Z,3.33
2019-03-10T11:17:23.781Z,3.25
2019-03-10T11:19:00.378Z,2.90
2019-03-10T11:20:17.934Z,2.60
2019-03-10T11:21:57.438Z,3.02
2019-03-10T11:23:12.298Z,3.05
2019-03-10T11:24:22.411Z,2.20
2019-03-10T11:25:31.856Z,2.55
2019-03-10T11:26:43.631Z,3.12
2019-03-10T11:28:07.846Z,2.25
2019-03-10T11:29:24.747Z,2.33
2019-03-10T11:30:47.548Z,2.62
2019-03-10T11:32:02.160Z,2.90
2019-03-10T11:33:24.319Z,2.72
2019-03-10T11:34:51.431Z,3.42
2019-03-10T11:36:14.415Z,2.80
2019-03-10T11:37:36.855Z,3.08
2019-03-10T11:38:57.545Z,3.45
2019-03-10T11:40:39.895Z,2.90
2019-03-10T11:41:56.264Z,2.35
2019-03-10T11:43:31.917Z,2.90
2019-03-10T11:45:00.433Z,3.70
2019-03-10T11:46:26.262Z,2.55
2019-03-10T11:47:43.938Z,2.90
2019-03-10T11:49:01.245Z,2.85
2019-03-10T11:50:32.214Z,4.28
2019-03-10T11:51:44.672Z,2.98
2019-03-10T11:53:18.366Z,2.87
2019-03-10T11:54:33.669Z,5.33
2019-03-10T11:55:56.370Z,2.45
2019-03-10T11:57:23.298Z,3.40
2019-03-10T11:58:36.863Z,2.40
2019-03-10T11:59:46.136Z,3.02
2019-03-10T12:01:10.246Z,3.20
2019-03-10T12:02:34.596Z,3.27
2019-03-10T12:03:49.693Z,3.15
2019-03-10T12:05:02.459Z,3.20
2019-03-10T12:06:26.978Z,2.47
2019-03-10T12:07:45.854Z,2.55
2019-03-10T12:09:10.046Z,2.47
2019-03-10T12:10:15.226Z,3.80
2019-03-10T12:11:20.749Z,2.92
2019-03-10T12:12:25.926Z,2.70
2019-03-10T12:13:31.750Z,2.98
2019-03-10T12:14:36.830Z,3.60
2019-03-10T12:15:42.100Z,3.10
2019-03-10T12:16:47.528Z,2.47
2019-03-10T12:17:53.269Z,3.20
2019-03-10T12:18:58.907Z,3.15
2019-03-10T12:20:04.427Z,1.85
2019-03-10T12:21:10.107Z,3.35
2019-03-10T12:22:15.498Z,4.08
2019-03-10T12:23:30.029Z,3.35
2019-03-10T12:24:35.974Z,3.25
2019-03-10T12:25:41.423Z,3.35
2019-03-10T12:26:46.541Z,3.50
2019-03-10T12:27:51.792Z,2.92
2019-03-10T12:28:56.913Z,3.50
2019-03-10T12:30:05.987Z,5.05
2019-03-10T12:31:11.034Z,3.40
2019-03-10T12:32:16.305Z,4.50
2019-03-10T12:33:21.713Z,2.22
2019-03-10T12:34:26.939Z,2.75
2019-03-10T12:35:34.568Z,3.65
2019-03-10T12:36:39.099Z,4.05
2019-03-10T12:37:44.419Z,3.80
2019-03-10T12:38:49.453Z,2.45
2019-03-10T12:39:55.164Z,3.87
2019-03-10T12:41:00.785Z,3.55
2019-03-10T12:42:06.819Z,3.30
2019-03-10T12:43:12.179Z,3.22
2019-03-10T12:44:17.609Z,3.75
2019-03-10T12:45:23.542Z,3.85
2019-03-10T12:46:28.996Z,3.98
2019-03-10T12:47:34.805Z,3.72
2019-03-10T12:48:40.453Z,3.80
2019-03-10T12:49:45.780Z,2.92
2019-03-10T12:50:51.730Z,3.83
2019-03-10T12:51:57.008Z,3.40
2019-03-10T12:53:02.422Z,3.67
2019-03-10T12:54:07.659Z,4.00
2019-03-10T12:55:13.056Z,3.65
2019-03-10T12:56:18.641Z,3.40
2019-03-10T12:57:24.161Z,3.90
2019-03-10T12:58:32.711Z,4.47
2019-03-10T12:59:38.086Z,3.98
2019-03-10T13:00:43.169Z,3.98
2019-03-10T13:01:48.269Z,3.83
2019-03-10T13:02:54.329Z,4.12
2019-03-10T13:03:59.529Z,3.95
2019-03-10T13:05:04.804Z,4.87
2019-03-10T13:06:10.283Z,4.30
2019-03-10T13:07:15.514Z,4.37
2019-03-10T13:08:20.861Z,3.55
2019-03-10T13:09:26.259Z,3.98
2019-03-10T13:10:31.353Z,3.37
2019-03-10T13:11:36.538Z,3.55
2019-03-10T13:12:42.123Z,3.70
2019-03-10T13:13:47.563Z,3.50
2019-03-10T13:14:59.520Z,3.02
2019-03-10T13:16:00.442Z,3.70
2019-03-10T13:17:05.734Z,3.75
2019-03-10T13:18:10.861Z,2.87
2019-03-10T13:19:15.893Z,3.60
2019-03-10T13:20:28.225Z,3.00
2019-03-10T13:21:28.721Z,3.10
2019-03-10T13:22:34.133Z,3.90
2019-03-10T13:23:39.405Z,2.30
2019-03-10T13:24:44.959Z,3.10
2019-03-10T13:25:50.834Z,3.00
2019-03-10T13:26:56.475Z,3.87
2019-03-10T13:28:01.469Z,2.83
2019-03-10T13:29:06.584Z,3.45
2019-03-10T13:30:12.046Z,3.08
2019-03-10T13:31:17.523Z,1.60
2019-03-10T13:32:23.253Z,2.90
2019-03-10T13:33:28.698Z,2.22
2019-03-10T13:34:33.728Z,2.35
2019-03-10T13:35:38.800Z,3.45
2019-03-10T13:36:44.260Z,1.95
2019-03-10T13:37:49.862Z,1.40
2019-03-10T13:38:55.509Z,1.42
2019-03-10T13:40:00.741Z,1.62
2019-03-10T13:41:06.396Z,1.20
2019-03-10T13:42:11.812Z,1.90
2019-03-10T13:43:17.145Z,1.30
2019-03-10T13:44:24.718Z,1.22
2019-03-10T13:45:29.454Z,1.70
2019-03-10T13:46:34.924Z,1.98
2019-03-10T13:47:40.336Z,1.95
2019-03-10T13:48:45.550Z,2.22
2019-03-10T13:49:50.523Z,1.60
2019-03-10T13:50:55.949Z,1.60
2019-03-10T13:52:01.143Z,1.30
2019-03-10T13:53:06.251Z,1.77
2019-03-10T13:54:11.305Z,1.50
2019-03-10T13:55:16.608Z,1.70
2019-03-10T13:56:21.839Z,1.50
2019-03-10T13:57:27.048Z,1.80
2019-03-10T13:58:32.327Z,1.60
2019-03-10T13:59:37.657Z,1.60
2019-03-10T14:00:42.857Z,1.50
2019-03-10T14:01:48.261Z,1.62
2019-03-10T14:02:53.928Z,1.70
2019-03-10T14:04:00.195Z,1.60
2019-03-10T14:05:06.172Z,1.40
2019-03-10T14:06:11.462Z,1.32
2019-03-10T14:07:16.667Z,2.22
2019-03-10T14:08:21.870Z,1.60
2019-03-10T14:09:27.317Z,1.17
2019-03-10T14:10:33.138Z,1.70
2019-03-10T14:11:38.844Z,1.82
2019-03-10T14:12:44.072Z,2.40
2019-03-10T14:13:49.743Z,1.55
2019-03-10T14:14:54.887Z,1.50
2019-03-10T14:16:00.169Z,1.60
2019-03-10T14:17:05.509Z,1.80
2019-03-10T14:18:10.690Z,1.55
2019-03-10T14:19:15.776Z,1.40
2019-03-10T14:20:21.458Z,2.05
2019-03-10T14:21:26.842Z,1.65
2019-03-10T14:22:32.155Z,1.30
2019-03-10T14:23:37.413Z,1.95
2019-03-10T14:24:42.803Z,1.22
2019-03-10T14:25:48.065Z,1.65
2019-03-10T14:26:53.485Z,2.20
2019-03-10T14:27:58.544Z,2.60
2019-03-10T14:29:03.663Z,1.72
2019-03-10T14:30:09.501Z,1.92
2019-03-10T14:31:14.669Z,1.82
2019-03-10T14:32:20.126Z,1.87
2019-03-10T14:33:25.378Z,1.40
2019-03-10T14:34:30.707Z,1.77
2019-03-10T14:35:36.077Z,2.00
2019-03-10T14:36:41.399Z,2.05
2019-03-10T14:37:46.597Z,1.92
2019-03-10T14:38:51.684Z,2.52
2019-03-10T14:39:56.867Z,2.17
2019-03-10T14:41:02.165Z,2.58
2019-03-10T14:42:07.227Z,1.67
2019-03-10T14:43:12.577Z,1.50
2019-03-10T14:44:18.144Z,1.72
2019-03-10T14:45:23.366Z,1.57
2019-03-10T14:46:28.829Z,1.87
2019-03-10T14:47:33.887Z,1.50
2019-03-10T14:48:39.063Z,1.77
2019-03-10T14:49:44.456Z,1.82
2019-03-10T14:50:49.813Z,2.42
2019-03-10T14:51:54.995Z,1.05
2019-03-10T14:53:00.455Z,1.47
2019-03-10T14:54:05.776Z,2.85
2019-03-10T14:55:12.071Z,1.47
2019-03-10T14:56:17.274Z,2.15
2019-03-10T14:57:22.597Z,1.75
2019-03-10T14:58:28.139Z,1.40
2019-03-10T14:59:33.703Z,1.95
2019-03-10T15:00:38.926Z,1.65
2019-03-10T15:01:44.440Z,1.65
2019-03-10T15:02:49.631Z,1.45
2019-03-10T15:03:55.026Z,1.30
2019-03-10T15:05:00.395Z,2.12
2019-03-10T15:06:05.549Z,1.62
2019-03-10T15:07:10.587Z,1.50
2019-03-10T15:08:15.746Z,1.57
2019-03-10T15:09:20.941Z,1.27
2019-03-10T15:10:26.661Z,1.15
2019-03-10T15:11:31.906Z,1.07
2019-03-10T15:12:37.044Z,1.25
2019-03-10T15:13:42.458Z,1.70
2019-03-10T15:14:49.261Z,1.40
2019-03-10T15:15:54.467Z,1.52
2019-03-10T15:17:02.430Z,1.07
2019-03-10T15:18:07.196Z,1.12
2019-03-10T15:19:12.727Z,1.15
2019-03-10T15:20:21.311Z,1.02
2019-03-10T15:21:25.747Z,1.25
2019-03-10T15:22:31.159Z,1.10
2019-03-10T15:23:36.375Z,1.70
2019-03-10T15:24:41.771Z,1.45
2019-03-10T15:25:47.061Z,2.00
2019-03-10T15:26:52.310Z,1.10
2019-03-10T15:27:57.591Z,1.52
2019-03-10T15:29:02.992Z,1.75
2019-03-10T15:30:11.139Z,1.02
2019-03-10T15:31:19.161Z,1.20
2019-03-10T15:32:24.602Z,1.57
2019-03-10T15:33:29.770Z,1.20
2019-03-10T15:34:36.565Z,1.90
2019-03-10T15:35:41.802Z,1.52
2019-03-10T15:36:47.155Z,1.65